Time;durP1;ratioP1;P1;durP2;ratioP2;P2;SDS_P1;SDS_P2;PMS_P1;PMS_P2;Temp;Humidity;BMP_temperature;BMP_pressure;BME280_temperature;BME280_humidity;BME280_pressure;Samples;Min_cycle;Max_cycle;Signal;HPM_P1;HPM_P2
2021/01/23 00:01:49;;;;;;;18.35;11.07;;;230.50;2176.00;;;;;;5057960;28;20028;-86
2021/01/23 00:04:14;;;;;;;23.58;13.38;;;230.50;2150.40;;;;;;5057783;28;20088;-86
2021/01/23 00:06:42;;;;;;;17.40;13.48;;;230.50;2176.00;;;;;;5055383;28;20024;-86
2021/01/23 00:09:08;;;;;;;29.63;18.10;;;230.40;2176.00;;;;;;5054693;28;20103;-87
2021/01/23 00:11:34;;;;;;;77.50;49.13;;;230.40;2176.00;;;;;;5053697;28;20067;-87
2021/01/23 00:14:00;;;;;;;74.25;45.60;;;230.40;2176.00;;;;;;5058069;28;20029;-86
2021/01/23 00:16:26;;;;;;;89.72;56.13;;;230.40;2176.00;;;;;;5050916;28;20031;-87
2021/01/23 00:18:52;;;;;;;83.13;52.72;;;230.40;2176.00;;;;;;5038649;28;20049;-84
2021/01/23 00:21:18;;;;;;;84.72;51.88;;;230.40;2176.00;;;;;;5036690;28;20126;-85
2021/01/23 00:23:44;;;;;;;53.45;34.83;;;205.70;2176.00;;;;;;5036653;28;20486;-83
2021/01/23 00:26:09;;;;;;;54.60;32.55;;;205.70;2176.00;;;;;;5037474;28;20032;-82
2021/01/23 00:28:35;;;;;;;28.55;19.05;;;205.70;2176.00;;;;;;5055685;28;20112;-83
2021/01/23 00:31:01;;;;;;;21.83;13.38;;;230.40;2176.00;;;;;;5037530;28;20060;-84
2021/01/23 00:33:27;;;;;;;17.73;11.75;;;230.50;2150.40;;;;;;5037592;28;20029;-82
2021/01/23 00:35:53;;;;;;;18.27;11.27;;;230.40;2176.00;;;;;;5037883;28;20103;-86
2021/01/23 00:38:19;;;;;;;20.02;12.88;;;230.50;2176.00;;;;;;5037305;28;20028;-83
2021/01/23 00:40:45;;;;;;;24.80;13.65;;;230.90;2176.00;;;;;;5037278;28;20021;-85
2021/01/23 00:43:10;;;;;;;20.25;11.93;;;230.40;2176.00;;;;;;5051904;28;20044;-83
2021/01/23 00:45:37;;;;;;;14.60;9.20;;;230.50;2176.00;;;;;;5057758;28;20020;-88
2021/01/23 00:48:07;;;;;;;12.98;9.00;;;230.50;2176.00;;;;;;5057564;28;20048;-86
2021/01/23 00:50:33;;;;;;;21.13;11.98;;;230.50;2176.00;;;;;;5057609;28;20023;-86
2021/01/23 00:52:59;;;;;;;20.55;10.65;;;230.50;2176.00;;;;;;5057372;28;20029;-86
2021/01/23 00:55:25;;;;;;;17.42;11.05;;;230.50;2176.00;;;;;;5075214;28;20016;-92
2021/01/23 00:57:51;;;;;;;14.38;8.90;;;205.70;2176.00;;;;;;5057845;28;20021;-89
2021/01/23 01:00:17;;;;;;;15.63;11.65;;;230.50;2176.00;;;;;;5057170;28;20025;-88
2021/01/23 01:02:43;;;;;;;18.45;12.95;;;230.50;2176.00;;;;;;5058494;28;20025;-88
2021/01/23 01:05:10;;;;;;;15.95;10.32;;;230.50;2176.00;;;;;;5057670;28;20131;-87
2021/01/23 01:07:36;;;;;;;15.82;10.90;;;230.80;2176.00;;;;;;5058529;28;20074;-89
2021/01/23 01:10:03;;;;;;;18.13;11.63;;;230.50;2176.00;;;;;;5057606;28;20029;-92
2021/01/23 01:12:29;;;;;;;16.13;10.13;;;205.70;2176.00;;;;;;5058085;28;20120;-89
2021/01/23 01:14:55;;;;;;;18.48;11.52;;;230.60;2150.40;;;;;;5057604;28;20024;-89
2021/01/23 01:17:21;;;;;;;15.98;10.95;;;230.40;2176.00;;;;;;5058244;28;20086;-89
2021/01/23 01:19:50;;;;;;;14.10;10.77;;;230.60;2176.00;;;;;;5057099;28;20484;-89
2021/01/23 01:22:16;;;;;;;14.27;9.88;;;230.50;2176.00;;;;;;5063851;28;20033;-90
2021/01/23 01:24:43;;;;;;;16.27;9.00;;;230.60;2176.00;;;;;;5068255;28;20013;-93
2021/01/23 01:27:09;;;;;;;15.75;10.25;;;230.90;2176.00;;;;;;5071357;28;20017;-91
2021/01/23 01:29:35;;;;;;;16.42;11.55;;;230.50;2176.00;;;;;;5068617;28;20111;-93
2021/01/23 01:32:02;;;;;;;17.10;11.32;;;230.50;2176.00;;;;;;5074007;28;20078;-89
2021/01/23 01:34:28;;;;;;;18.27;10.63;;;230.40;2201.60;;;;;;5069637;28;20479;-89
2021/01/23 01:36:55;;;;;;;20.05;12.80;;;230.40;2176.00;;;;;;5076319;28;20024;-90
2021/01/23 01:39:21;;;;;;;17.80;12.73;;;205.70;2201.60;;;;;;5078928;28;20021;-90
2021/01/23 01:41:47;;;;;;;15.38;11.18;;;205.70;2201.60;;;;;;5078622;28;20063;-89
2021/01/23 01:44:13;;;;;;;17.20;10.43;;;205.70;2201.60;;;;;;5068517;28;20020;-92
2021/01/23 01:46:40;;;;;;;14.05;9.35;;;205.70;2201.60;;;;;;5062329;28;20024;-87
2021/01/23 01:49:07;;;;;;;17.35;10.13;;;205.70;2201.60;;;;;;5056725;28;20029;-85
2021/01/23 01:51:33;;;;;;;13.63;9.57;;;205.40;2201.60;;;;;;5057909;28;20028;-88
2021/01/23 01:54:00;;;;;;;13.18;9.23;;;205.70;2201.60;;;;;;5056783;28;20028;-88
2021/01/23 01:56:26;;;;;;;13.50;9.23;;;230.40;2176.00;;;;;;5056702;28;20037;-87
2021/01/23 01:58:52;;;;;;;16.58;10.77;;;230.40;2176.00;;;;;;5072906;28;20025;-79
2021/01/23 02:01:19;;;;;;;11.85;8.43;;;230.40;2176.00;;;;;;5070724;28;20038;-89
2021/01/23 02:04:11;;;;;;;13.60;9.43;;;230.40;2150.40;;;;;;5079860;28;20062;-88
2021/01/23 02:07:05;;;;;;;11.90;9.15;;;230.50;2176.00;;;;;;5083460;28;20020;-89
2021/01/23 02:09:45;;;;;;;16.40;10.15;;;230.50;2176.00;;;;;;5080230;28;20228;-90
2021/01/23 02:12:15;;;;;;;13.95;10.05;;;230.50;2176.00;;;;;;5077505;28;20119;-90
2021/01/23 02:15:00;;;;;;;11.38;8.02;;;230.50;2176.00;;;;;;5077197;28;20028;-90
2021/01/23 02:17:41;;;;;;;16.17;9.20;;;230.50;2176.00;;;;;;5076471;28;20077;-91
2021/01/23 02:20:36;;;;;;;12.27;7.80;;;230.50;2176.00;;;;;;5076368;28;20486;-90
2021/01/23 02:23:16;;;;;;;17.83;8.40;;;230.50;2150.40;;;;;;5077188;28;20028;-88
2021/01/23 02:26:11;;;;;;;14.18;7.93;;;230.60;2150.40;;;;;;5077223;28;20135;-89
2021/01/23 02:29:12;;;;;;;14.02;7.72;;;230.60;2150.40;;;;;;5076711;28;20016;-88
2021/01/23 02:31:45;;;;;;;13.27;8.77;;;230.60;2150.40;;;;;;5012479;28;20054;-90
2021/01/23 02:34:17;;;;;;;16.38;8.35;;;230.60;2150.40;;;;;;5064070;28;20387;-90
2021/01/23 02:36:44;;;;;;;14.60;9.57;;;230.60;2124.80;;;;;;5077014;28;20028;-89
2021/01/23 02:39:13;;;;;;;14.10;8.77;;;230.60;2124.80;;;;;;5076809;28;20106;-89
2021/01/23 02:41:39;;;;;;;16.38;10.15;;;230.60;2124.80;;;;;;5076666;28;20028;-92
2021/01/23 02:44:06;;;;;;;11.38;7.88;;;230.80;2124.80;;;;;;5076784;28;20188;-90
2021/01/23 02:46:32;;;;;;;15.00;7.43;;;230.60;2124.80;;;;;;5076613;28;20024;-88
2021/01/23 02:48:58;;;;;;;12.50;7.97;;;230.60;2124.80;;;;;;5076631;28;20016;-90
2021/01/23 02:51:33;;;;;;;12.32;8.00;;;231.10;2124.80;;;;;;5076476;28;20028;-90
2021/01/23 02:54:08;;;;;;;12.82;7.18;;;230.70;2150.40;;;;;;5076734;28;20028;-90
2021/01/23 02:56:35;;;;;;;11.07;8.02;;;230.70;2124.80;;;;;;5077031;28;20467;-89
2021/01/23 02:59:04;;;;;;;10.70;6.30;;;230.80;2099.20;;;;;;5076457;28;20020;-89
2021/01/23 03:01:34;;;;;;;11.57;6.97;;;230.80;2124.80;;;;;;5076436;28;20031;-91
2021/01/23 03:04:01;;;;;;;10.75;6.57;;;230.80;2124.80;;;;;;5077049;28;20028;-90
2021/01/23 03:06:28;;;;;;;12.57;7.35;;;230.80;2124.80;;;;;;5076443;28;20107;-89
2021/01/23 03:08:54;;;;;;;12.25;6.80;;;230.80;2099.20;;;;;;5076169;28;20040;-90
2021/01/23 03:11:20;;;;;;;13.80;8.45;;;231.00;2099.20;;;;;;5076362;28;20059;-91
2021/01/23 03:13:46;;;;;;;16.17;9.15;;;230.90;2124.80;;;;;;5076888;28;20026;-89
2021/01/23 03:16:12;;;;;;;12.40;6.95;;;230.90;2124.80;;;;;;5077281;28;20028;-90
2021/01/23 03:18:38;;;;;;;11.88;6.55;;;230.80;2124.80;;;;;;5079793;28;20032;-91
2021/01/23 03:21:05;;;;;;;13.38;7.93;;;230.90;2124.80;;;;;;5079599;28;20112;-89
2021/01/23 03:23:31;;;;;;;11.25;7.55;;;230.80;2124.80;;;;;;5072258;28;20023;-89
2021/01/23 03:25:57;;;;;;;15.05;7.55;;;230.80;2124.80;;;;;;5096582;28;20024;-89
2021/01/23 03:28:23;;;;;;;13.68;7.45;;;230.80;2124.80;;;;;;5097037;28;20027;-90
2021/01/23 03:30:49;;;;;;;10.25;7.22;;;230.80;2150.40;;;;;;5096912;28;20379;-89
2021/01/23 03:33:15;;;;;;;12.18;7.80;;;230.80;2150.40;;;;;;5096957;28;20020;-89
2021/01/23 03:35:41;;;;;;;12.05;7.22;;;230.90;2124.80;;;;;;5097321;28;20115;-88
2021/01/23 03:38:07;;;;;;;10.20;7.25;;;230.80;2150.40;;;;;;5096606;28;20016;-90
2021/01/23 03:40:33;;;;;;;16.67;6.93;;;230.80;2150.40;;;;;;5096423;28;20020;-91
2021/01/23 03:42:59;;;;;;;8.70;6.22;;;230.80;2124.80;;;;;;5096126;28;20050;-90
2021/01/23 03:45:25;;;;;;;9.45;5.95;;;230.80;2124.80;;;;;;5096528;28;20051;-89
2021/01/23 03:47:51;;;;;;;11.23;5.65;;;230.70;2124.80;;;;;;5079686;28;20024;-89
2021/01/23 03:50:17;;;;;;;10.55;5.40;;;231.00;2099.20;;;;;;5079304;28;20027;-90
2021/01/23 03:52:43;;;;;;;8.73;5.50;;;231.00;2099.20;;;;;;5096825;28;20035;-89
2021/01/23 03:55:10;;;;;;;10.77;5.05;;;231.00;2099.20;;;;;;5096028;28;20039;-90
2021/01/23 03:57:36;;;;;;;10.02;5.82;;;231.10;2099.20;;;;;;5096313;28;20035;-89
2021/01/23 04:00:04;;;;;;;8.05;5.25;;;231.10;2073.60;;;;;;5095751;28;20032;-90
2021/01/23 04:02:30;;;;;;;8.45;5.60;;;231.20;2073.60;;;;;;5095818;28;20475;-89
2021/01/23 04:04:57;;;;;;;9.90;6.20;;;231.20;2073.60;;;;;;5096117;28;20024;-89
2021/01/23 04:07:22;;;;;;;9.43;5.18;;;231.20;2073.60;;;;;;5096231;28;20030;-89
2021/01/23 04:09:48;;;;;;;8.60;5.57;;;231.30;2073.60;;;;;;5095776;28;20024;-90
2021/01/23 04:12:14;;;;;;;9.73;5.68;;;231.30;2073.60;;;;;;5095759;28;20020;-89
2021/01/23 04:14:40;;;;;;;11.32;6.70;;;231.30;2073.60;;;;;;5095949;28;20050;-90
2021/01/23 04:17:06;;;;;;;14.60;8.75;;;231.10;2073.60;;;;;;5095795;28;20059;-89
2021/01/23 04:19:32;;;;;;;14.20;9.45;;;231.10;2099.20;;;;;;5095995;28;20035;-88
2021/01/23 04:22:00;;;;;;;13.00;8.75;;;231.10;2099.20;;;;;;5095019;28;20122;-89
2021/01/23 04:24:26;;;;;;;11.40;8.30;;;230.90;2099.20;;;;;;5075308;28;20024;-89
2021/01/23 04:26:52;;;;;;;12.77;8.60;;;231.00;2099.20;;;;;;5075602;28;20553;-91
2021/01/23 04:29:18;;;;;;;12.98;7.53;;;231.20;2099.20;;;;;;5075178;28;20124;-89
2021/01/23 04:31:44;;;;;;;11.45;7.45;;;230.90;2099.20;;;;;;5091854;28;20495;-90
2021/01/23 04:34:10;;;;;;;12.43;7.80;;;230.90;2099.20;;;;;;5079169;28;20460;-91
2021/01/23 04:36:36;;;;;;;13.75;8.02;;;230.80;2099.20;;;;;;5095380;28;20035;-91
2021/01/23 04:39:03;;;;;;;14.57;8.85;;;230.70;2124.80;;;;;;5095514;28;20036;-90
2021/01/23 04:41:30;;;;;;;22.48;13.05;;;230.60;2124.80;;;;;;5095809;28;20028;-88
2021/01/23 04:43:56;;;;;;;14.85;9.15;;;230.60;2150.40;;;;;;5098801;28;20110;-90
2021/01/23 04:46:23;;;;;;;18.90;10.88;;;230.60;2124.80;;;;;;5099101;28;20024;-90
2021/01/23 04:48:49;;;;;;;17.20;10.57;;;230.50;2150.40;;;;;;5098788;28;20024;-91
2021/01/23 04:51:17;;;;;;;34.47;18.15;;;230.40;2150.40;;;;;;5098454;28;20378;-89
2021/01/23 04:53:47;;;;;;;16.90;8.77;;;230.50;2150.40;;;;;;5098557;28;20023;-91
2021/01/23 04:56:13;;;;;;;14.63;8.57;;;230.50;2150.40;;;;;;5098353;28;20031;-90
2021/01/23 04:58:39;;;;;;;17.80;11.20;;;230.60;2150.40;;;;;;5098469;28;20028;-91
2021/01/23 05:01:05;;;;;;;20.45;12.82;;;230.60;2150.40;;;;;;5098311;28;20034;-91
2021/01/23 05:03:50;;;;;;;22.83;14.73;;;230.60;2150.40;;;;;;5098281;28;20371;-91
2021/01/23 05:06:16;;;;;;;37.47;22.88;;;230.60;2150.40;;;;;;5098877;28;20059;-91
2021/01/23 05:08:42;;;;;;;35.65;20.67;;;230.60;2150.40;;;;;;5099190;28;20458;-91
2021/01/23 05:11:08;;;;;;;25.63;17.13;;;230.70;2150.40;;;;;;5098222;28;20024;-91
2021/01/23 05:13:34;;;;;;;23.73;16.25;;;230.40;2150.40;;;;;;5098245;28;20027;-90
2021/01/23 05:16:00;;;;;;;24.88;15.95;;;230.40;2176.00;;;;;;5096736;28;20024;-89
2021/01/23 05:18:26;;;;;;;19.77;15.05;;;230.50;2176.00;;;;;;5098131;28;20031;-93
2021/01/23 05:20:53;;;;;;;24.75;15.20;;;230.50;2176.00;;;;;;5097984;28;20494;-92
2021/01/23 05:23:23;;;;;;;20.17;14.05;;;230.50;2176.00;;;;;;5100271;28;20110;-90
2021/01/23 05:25:50;;;;;;;18.02;13.40;;;230.60;2176.00;;;;;;5100307;28;20069;-90
2021/01/23 05:28:36;;;;;;;15.82;11.05;;;230.60;2201.60;;;;;;5098171;28;20053;-90
2021/01/23 05:31:15;;;;;;;12.32;9.82;;;230.60;2201.60;;;;;;5096852;28;20043;-89
2021/01/23 05:33:41;;;;;;;12.75;7.75;;;230.50;2201.60;;;;;;5096606;28;20030;-90
2021/01/23 05:36:13;;;;;;;12.88;7.40;;;230.60;2201.60;;;;;;5097412;28;20024;-90
2021/01/23 05:38:39;;;;;;;10.05;6.25;;;230.50;2201.60;;;;;;5097287;28;20490;-91
2021/01/23 05:41:11;;;;;;;9.80;7.10;;;230.60;2201.60;;;;;;5097059;28;20024;-92
2021/01/23 05:43:49;;;;;;;9.85;7.32;;;230.50;2201.60;;;;;;5097204;28;20120;-90
2021/01/23 05:46:26;;;;;;;8.55;5.90;;;230.60;2176.00;;;;;;5097712;28;20051;-90
2021/01/23 05:48:53;;;;;;;9.00;5.90;;;230.70;2176.00;;;;;;5097889;28;20023;-90
2021/01/23 05:51:21;;;;;;;14.95;6.78;;;230.80;2176.00;;;;;;5097347;28;20115;-89
2021/01/23 05:53:48;;;;;;;11.93;6.78;;;230.80;2176.00;;;;;;5097292;28;20023;-91
2021/01/23 05:56:14;;;;;;;7.43;5.28;;;230.80;2150.40;;;;;;5097122;28;20023;-91
2021/01/23 05:58:43;;;;;;;11.30;6.65;;;230.60;2150.40;;;;;;5097664;28;20051;-90
2021/01/23 06:01:16;;;;;;;11.38;7.63;;;230.90;2150.40;;;;;;5097260;28;20027;-90
2021/01/23 06:03:48;;;;;;;15.93;9.77;;;230.90;2150.40;;;;;;5097608;28;20026;-90
2021/01/23 06:06:14;;;;;;;13.25;8.65;;;230.90;2150.40;;;;;;5096932;28;20080;-90
2021/01/23 06:08:43;;;;;;;13.63;9.45;;;230.90;2150.40;;;;;;5098101;28;20020;-92
2021/01/23 06:11:18;;;;;;;18.38;12.02;;;230.90;2150.40;;;;;;5097615;28;20027;-88
2021/01/23 06:13:48;;;;;;;19.50;12.63;;;231.00;2150.40;;;;;;5097442;28;20027;-90
2021/01/23 06:16:32;;;;;;;15.15;10.35;;;231.00;2150.40;;;;;;5098381;28;20097;-89
2021/01/23 06:19:27;;;;;;;10.40;7.15;;;231.00;2150.40;;;;;;5097491;28;20024;-89
2021/01/23 06:21:53;;;;;;;17.85;12.18;;;231.00;2124.80;;;;;;5097139;28;20068;-89
2021/01/23 06:24:44;;;;;;;31.52;20.15;;;231.00;2150.40;;;;;;5097338;28;20022;-90
2021/01/23 06:27:10;;;;;;;15.35;10.30;;;231.00;2124.80;;;;;;5097215;28;20058;-90
2021/01/23 06:29:38;;;;;;;31.98;18.85;;;231.00;2150.40;;;;;;5097622;28;20059;-90
2021/01/23 06:32:13;;;;;;;22.17;13.10;;;231.00;2124.80;;;;;;5097416;28;20019;-90
2021/01/23 06:34:46;;;;;;;15.27;10.00;;;231.00;2150.40;;;;;;5097041;28;20092;-90
2021/01/23 06:37:38;;;;;;;19.73;13.38;;;231.00;2124.80;;;;;;5097402;28;20031;-89
2021/01/23 06:40:14;;;;;;;15.13;11.43;;;231.00;2150.40;;;;;;5097517;28;20034;-91
2021/01/23 06:42:49;;;;;;;19.60;14.70;;;231.10;2124.80;;;;;;5096550;28;20067;-90
2021/01/23 06:45:26;;;;;;;11.10;8.13;;;231.10;2124.80;;;;;;5097573;28;20031;-90
2021/01/23 06:47:53;;;;;;;21.77;14.32;;;231.10;2150.40;;;;;;5097498;28;20019;-91
2021/01/23 06:50:40;;;;;;;14.48;9.30;;;231.10;2124.80;;;;;;5097376;28;20077;-90
2021/01/23 06:53:18;;;;;;;17.77;11.68;;;231.10;2124.80;;;;;;5101380;28;20110;-89
2021/01/23 06:55:45;;;;;;;16.80;13.05;;;231.20;2124.80;;;;;;5101342;28;20030;-89
2021/01/23 06:58:26;;;;;;;15.68;10.43;;;231.20;2124.80;;;;;;5100883;28;20024;-90
2021/01/23 07:00:54;;;;;;;16.35;10.85;;;231.20;2124.80;;;;;;5101726;28;20489;-89
2021/01/23 07:03:21;;;;;;;15.27;10.70;;;231.30;2124.80;;;;;;5100874;28;20058;-91
2021/01/23 07:05:51;;;;;;;13.45;9.73;;;231.30;2124.80;;;;;;5100616;28;20053;-91
2021/01/23 07:08:20;;;;;;;15.25;10.27;;;231.30;2124.80;;;;;;5100520;28;20016;-90
2021/01/23 07:11:02;;;;;;;16.38;11.13;;;231.30;2124.80;;;;;;5100581;28;20098;-89
2021/01/23 07:13:29;;;;;;;15.25;10.77;;;231.30;2099.20;;;;;;5102381;28;20072;-91
2021/01/23 07:15:55;;;;;;;30.45;14.77;;;231.20;2099.20;;;;;;5100431;28;20081;-90
2021/01/23 07:18:21;;;;;;;18.27;12.65;;;231.20;2124.80;;;;;;5100100;28;20026;-90
2021/01/23 07:20:48;;;;;;;21.17;11.90;;;230.90;2124.80;;;;;;5100349;28;20068;-89
2021/01/23 07:23:14;;;;;;;18.13;10.38;;;256.70;2124.80;;;;;;5100059;28;20016;-91
2021/01/23 07:25:41;;;;;;;14.13;8.80;;;231.30;2124.80;;;;;;5100583;28;20036;-91
2021/01/23 07:28:07;;;;;;;17.15;13.10;;;256.00;2099.20;;;;;;5100188;28;20020;-90
2021/01/23 07:30:33;;;;;;;14.35;8.95;;;256.00;2124.80;;;;;;5099872;28;20088;-91
2021/01/23 07:33:00;;;;;;;32.42;22.98;;;256.00;2124.80;;;;;;5100796;28;20048;-89
2021/01/23 07:35:35;;;;;;;22.88;15.20;;;256.10;2124.80;;;;;;5100173;28;20027;-90
2021/01/23 07:38:01;;;;;;;19.63;13.35;;;256.20;2099.20;;;;;;5099701;28;20034;-91
2021/01/23 07:40:32;;;;;;;23.77;14.38;;;256.10;2099.20;;;;;;5100433;28;20061;-89
2021/01/23 07:43:06;;;;;;;21.30;15.95;;;256.20;2099.20;;;;;;5096349;28;20483;-90
2021/01/23 07:45:33;;;;;;;15.48;9.98;;;256.20;2099.20;;;;;;5096483;28;20596;-89
2021/01/23 07:48:02;;;;;;;14.90;10.88;;;256.20;2073.60;;;;;;5095990;28;20115;-90
2021/01/23 07:50:48;;;;;;;11.52;8.32;;;256.30;2099.20;;;;;;5096624;28;20107;-91
2021/01/23 07:53:24;;;;;;;12.13;9.00;;;256.30;2073.60;;;;;;5096042;28;20024;-89
2021/01/23 07:55:53;;;;;;;50.03;30.42;;;256.60;2048.00;;;;;;5096560;28;20020;-88
2021/01/23 07:58:19;;;;;;;26.80;16.38;;;256.60;2022.40;;;;;;5096821;28;20023;-87
2021/01/23 08:00:47;;;;;;;44.60;27.38;;;256.70;2022.40;;;;;;5095895;28;20024;-89
2021/01/23 08:03:13;;;;;;;33.30;19.85;;;256.70;2022.40;;;;;;5096209;28;20024;-89
2021/01/23 08:05:49;;;;;;;52.72;30.42;;;256.80;2048.00;;;;;;5079278;28;20384;-89
2021/01/23 08:08:32;;;;;;;36.75;24.58;;;256.70;2022.40;;;;;;5096717;28;20020;-90
2021/01/23 08:11:04;;;;;;;37.72;27.13;;;256.80;2022.40;;;;;;5095972;28;20020;-88
2021/01/23 08:13:31;;;;;;;23.65;15.40;;;256.80;2022.40;;;;;;5096229;28;20016;-89
2021/01/23 08:16:12;;;;;;;41.38;25.52;;;256.90;1996.80;;;;;;5096725;28;20345;-88
2021/01/23 08:18:38;;;;;;;35.88;20.77;;;256.90;1996.80;;;;;;5096078;28;20031;-88
2021/01/23 08:21:20;;;;;;;15.15;10.18;;;281.60;2022.40;;;;;;5095987;28;20024;-87
2021/01/23 08:23:47;;;;;;;13.57;9.23;;;256.90;1996.80;;;;;;5095920;28;20016;-88
2021/01/23 08:26:13;;;;;;;15.55;11.57;;;281.60;1996.80;;;;;;5091823;28;20051;-90
2021/01/23 08:28:43;;;;;;;18.55;11.50;;;281.70;1996.80;;;;;;5095215;28;20089;-89
2021/01/23 08:31:18;;;;;;;13.32;8.85;;;281.70;2022.40;;;;;;5094048;28;20036;-90
2021/01/23 08:33:46;;;;;;;12.55;7.15;;;281.70;1996.80;;;;;;5094924;28;20024;-90
2021/01/23 08:36:12;;;;;;;9.95;6.55;;;282.50;1996.80;;;;;;5095622;28;20463;-92
2021/01/23 08:38:37;;;;;;;10.73;7.40;;;281.80;1996.80;;;;;;5099502;28;20162;-88
2021/01/23 08:41:04;;;;;;;11.68;8.25;;;281.80;1996.80;;;;;;5104941;28;20104;-87
2021/01/23 08:43:30;;;;;;;15.45;9.55;;;281.80;1996.80;;;;;;5099998;28;20101;-88
2021/01/23 08:45:56;;;;;;;12.85;9.30;;;281.90;1971.20;;;;;;5095280;28;20024;-88
2021/01/23 08:48:21;;;;;;;15.50;11.15;;;281.90;1971.20;;;;;;5095205;28;20521;-89
2021/01/23 08:50:50;;;;;;;11.85;9.85;;;281.90;1971.20;;;;;;5094984;28;20025;-90
2021/01/23 08:53:16;;;;;;;12.25;6.93;;;281.90;1996.80;;;;;;5095685;28;20360;-88
2021/01/23 08:55:42;;;;;;;10.30;7.18;;;282.00;1945.60;;;;;;5094836;28;20024;-89
2021/01/23 08:58:08;;;;;;;14.98;8.43;;;282.00;1945.60;;;;;;5094849;28;20058;-85
2021/01/23 09:00:34;;;;;;;12.90;8.48;;;282.00;1971.20;;;;;;5094697;28;20020;-86
2021/01/23 09:03:00;;;;;;;12.13;7.57;;;282.10;1971.20;;;;;;5094468;28;20028;-87
2021/01/23 09:05:29;;;;;;;12.30;7.30;;;282.10;1971.20;;;;;;5094330;28;20081;-85
2021/01/23 09:07:56;;;;;;;17.83;10.48;;;282.30;1945.60;;;;;;5094491;28;20039;-85
2021/01/23 09:10:21;;;;;;;19.98;11.68;;;282.10;1945.60;;;;;;5095161;28;20399;-86
2021/01/23 09:12:48;;;;;;;27.65;13.20;;;282.20;1945.60;;;;;;5094693;28;20024;-88
2021/01/23 09:15:15;;;;;;;18.00;10.15;;;282.20;1945.60;;;;;;5092046;28;20036;-85
2021/01/23 09:17:41;;;;;;;17.17;8.63;;;282.30;1920.00;;;;;;5095200;28;20034;-87
2021/01/23 09:20:11;;;;;;;16.45;9.63;;;282.30;1945.60;;;;;;5093349;28;20016;-86
2021/01/23 09:22:36;;;;;;;14.70;8.93;;;282.40;1920.00;;;;;;5094255;28;20027;-85
2021/01/23 09:25:03;;;;;;;15.27;9.38;;;282.40;1945.60;;;;;;5093990;28;20028;-87
2021/01/23 09:27:29;;;;;;;9.68;7.05;;;282.40;1920.00;;;;;;5095561;28;20028;-85
2021/01/23 09:29:54;;;;;;;15.48;10.68;;;282.40;1894.40;;;;;;5076958;28;20107;-84
2021/01/23 09:32:21;;;;;;;13.18;8.57;;;282.50;1920.00;;;;;;5094328;28;20024;-88
2021/01/23 09:34:47;;;;;;;9.63;6.43;;;282.50;1920.00;;;;;;5093798;28;20063;-85
2021/01/23 09:37:26;;;;;;;14.52;6.55;;;282.50;1920.00;;;;;;5095215;28;20044;-91
2021/01/23 09:40:01;;;;;;;11.90;8.38;;;307.20;1920.00;;;;;;5093645;28;20501;-93
2021/01/23 09:42:35;;;;;;;8.35;5.20;;;307.20;1920.00;;;;;;5093903;28;20063;-88
2021/01/23 09:45:02;;;;;;;12.63;7.07;;;307.20;1920.00;;;;;;5077434;28;20028;-88
2021/01/23 09:47:29;;;;;;;10.80;7.28;;;307.30;1894.40;;;;;;5077542;28;20048;-86
2021/01/23 09:49:54;;;;;;;8.57;6.45;;;307.40;1894.40;;;;;;5093928;28;20026;-88
2021/01/23 09:52:20;;;;;;;12.43;8.32;;;307.30;1868.80;;;;;;5093956;28;20475;-87
2021/01/23 09:54:46;;;;;;;12.80;7.53;;;307.40;1894.40;;;;;;5094046;28;20028;-87
2021/01/23 09:57:12;;;;;;;10.75;7.43;;;307.40;1894.40;;;;;;5093433;28;20038;-85
2021/01/23 09:59:38;;;;;;;11.88;6.07;;;307.40;1868.80;;;;;;5093816;28;20102;-87
2021/01/23 10:02:04;;;;;;;15.32;8.55;;;307.40;1868.80;;;;;;5094602;28;20070;-89
2021/01/23 10:04:30;;;;;;;11.18;7.20;;;307.50;1868.80;;;;;;5094266;28;20463;-86
2021/01/23 10:06:57;;;;;;;11.80;8.15;;;307.50;1868.80;;;;;;5095697;28;20031;-86
2021/01/23 10:09:23;;;;;;;12.20;8.18;;;307.50;1868.80;;;;;;5077603;28;20185;-85
2021/01/23 10:11:49;;;;;;;15.93;9.95;;;307.50;1868.80;;;;;;5094698;28;20028;-86
2021/01/23 10:14:16;;;;;;;11.40;8.10;;;307.50;1868.80;;;;;;5094604;28;20035;-85
2021/01/23 10:16:42;;;;;;;8.50;5.57;;;307.60;1868.80;;;;;;5094094;28;20024;-86
2021/01/23 10:19:08;;;;;;;25.92;17.35;;;307.50;1843.20;;;;;;5094213;28;20031;-86
2021/01/23 10:21:33;;;;;;;8.90;6.68;;;307.60;1843.20;;;;;;5093421;28;20027;-86
2021/01/23 10:23:59;;;;;;;6.25;4.97;;;307.50;1843.20;;;;;;5076133;28;20062;-85
2021/01/23 10:26:26;;;;;;;7.15;4.78;;;307.60;1843.20;;;;;;5096109;28;20475;-86
2021/01/23 10:28:52;;;;;;;13.65;9.52;;;307.60;1843.20;;;;;;5097216;28;20119;-84
2021/01/23 10:31:17;;;;;;;6.82;4.43;;;307.60;1843.20;;;;;;5097176;28;20044;-85
2021/01/23 10:33:43;;;;;;;11.27;5.47;;;307.60;1817.60;;;;;;5097148;28;20020;-84
2021/01/23 10:36:09;;;;;;;11.35;6.57;;;307.60;1817.60;;;;;;5097320;28;20037;-88
2021/01/23 10:38:35;;;;;;;11.27;7.22;;;307.60;1817.60;;;;;;5097710;28;20051;-84
2021/01/23 10:41:01;;;;;;;11.10;7.45;;;307.60;1843.20;;;;;;5096759;28;20163;-84
2021/01/23 10:43:27;;;;;;;16.02;11.48;;;307.60;1817.60;;;;;;5096772;28;20591;-84
2021/01/23 10:45:53;;;;;;;12.32;8.30;;;307.60;1843.20;;;;;;5096981;28;20379;-86
2021/01/23 10:48:18;;;;;;;12.32;8.40;;;307.60;1843.20;;;;;;5083231;28;20039;-83
2021/01/23 10:50:44;;;;;;;10.13;6.03;;;307.60;1843.20;;;;;;5090432;28;20084;-84
2021/01/23 10:53:10;;;;;;;11.35;5.70;;;307.60;1843.20;;;;;;5094125;28;20028;-84
2021/01/23 10:55:36;;;;;;;11.25;6.95;;;307.60;1817.60;;;;;;5094112;28;20081;-85
2021/01/23 10:58:02;;;;;;;12.80;8.80;;;307.60;1817.60;;;;;;5095573;28;20521;-86
2021/01/23 11:00:28;;;;;;;9.85;6.22;;;307.60;1817.60;;;;;;5091182;28;20114;-85
2021/01/23 11:02:54;;;;;;;14.05;8.73;;;307.70;1817.60;;;;;;5084584;28;20162;-85
2021/01/23 11:05:20;;;;;;;21.77;14.10;;;307.70;1792.00;;;;;;5074366;28;20029;-84
2021/01/23 11:07:46;;;;;;;15.95;10.75;;;307.70;1792.00;;;;;;5073979;28;20032;-86
2021/01/23 11:10:12;;;;;;;16.08;10.95;;;307.70;1817.60;;;;;;5074827;28;20025;-86
2021/01/23 11:12:38;;;;;;;11.98;7.63;;;307.60;1817.60;;;;;;5075142;28;20036;-85
2021/01/23 11:15:05;;;;;;;15.40;11.48;;;307.80;1843.20;;;;;;5075563;28;20029;-87
2021/01/23 11:17:31;;;;;;;15.95;10.38;;;307.80;1843.20;;;;;;5075550;28;20029;-84
2021/01/23 11:19:56;;;;;;;26.10;19.30;;;307.70;1843.20;;;;;;5076228;28;20031;-84
2021/01/23 11:22:23;;;;;;;16.42;9.70;;;307.80;1792.00;;;;;;5076181;28;20395;-85
2021/01/23 11:24:49;;;;;;;17.02;9.45;;;307.90;1792.00;;;;;;5075711;28;20024;-84
2021/01/23 11:27:14;;;;;;;13.05;8.85;;;307.90;1817.60;;;;;;5076154;28;20050;-86
2021/01/23 11:29:40;;;;;;;14.07;8.75;;;308.00;1792.00;;;;;;5076183;28;20032;-85
2021/01/23 11:32:06;;;;;;;13.65;8.25;;;308.00;1792.00;;;;;;5075515;28;20149;-88
2021/01/23 11:34:32;;;;;;;17.80;11.80;;;308.10;1792.00;;;;;;5076104;28;20044;-86
2021/01/23 11:36:57;;;;;;;17.02;9.73;;;308.10;1792.00;;;;;;5074839;28;20032;-82
2021/01/23 11:39:23;;;;;;;19.33;11.18;;;332.80;1817.60;;;;;;5074731;28;20028;-84
2021/01/23 11:41:49;;;;;;;14.77;7.65;;;332.90;1817.60;;;;;;5076311;28;20032;-83
2021/01/23 11:44:15;;;;;;;25.02;12.70;;;332.90;1766.40;;;;;;5078563;28;20027;-81
2021/01/23 11:46:41;;;;;;;15.00;9.63;;;333.00;1766.40;;;;;;5078684;28;20032;-81
2021/01/23 11:49:06;;;;;;;11.13;7.10;;;333.00;1766.40;;;;;;5078963;28;20452;-82
2021/01/23 11:51:33;;;;;;;13.10;9.48;;;333.00;1792.00;;;;;;5078655;28;20390;-81
2021/01/23 11:53:59;;;;;;;13.48;10.73;;;333.00;1740.80;;;;;;5078663;28;20439;-81
2021/01/23 11:56:26;;;;;;;12.30;7.38;;;333.00;1766.40;;;;;;5078613;28;20027;-81
2021/01/23 11:58:53;;;;;;;17.48;10.38;;;333.00;1740.80;;;;;;5077885;28;20451;-80
2021/01/23 12:01:18;;;;;;;11.48;6.97;;;333.10;1740.80;;;;;;5090859;28;20038;-83
2021/01/23 12:03:44;;;;;;;16.40;10.00;;;333.20;1740.80;;;;;;5098917;28;20119;-82
2021/01/23 12:06:10;;;;;;;14.70;9.88;;;333.20;1740.80;;;;;;5115498;28;20024;-80
2021/01/23 12:08:36;;;;;;;12.60;7.88;;;333.20;1740.80;;;;;;5098091;28;20073;-81
2021/01/23 12:11:01;;;;;;;10.68;6.95;;;333.20;1740.80;;;;;;5116692;28;20375;-81
2021/01/23 12:13:28;;;;;;;12.82;8.75;;;333.20;1715.20;;;;;;5097982;28;20378;-81